sensor_id;sensor_type;location;lat;lon;timestamp;pressure;altitude;pressure_sealevel;temperature;humidity
62237;BME280;69163;48.778;2.308;2024-02-21T00:01:48;101776.38;;;18.30;33.92
62237;BME280;69163;48.778;2.308;2024-02-21T00:04:13;101773.76;;;18.31;33.86
62237;BME280;69163;48.778;2.308;2024-02-21T00:06:38;101766.61;;;18.37;33.69
62237;BME280;69163;48.778;2.308;2024-02-21T00:09:04;101764.67;;;18.83;33.61
62237;BME280;69163;48.778;2.308;2024-02-21T00:11:29;101765.10;;;18.34;33.54
62237;BME280;69163;48.778;2.308;2024-02-21T00:13:55;101765.30;;;18.34;33.49
62237;BME280;69163;48.778;2.308;2024-02-21T00:16:21;101765.59;;;18.63;33.39
62237;BME280;69163;48.778;2.308;2024-02-21T00:18:46;101755.97;;;18.42;33.27
62237;BME280;69163;48.778;2.308;2024-02-21T00:21:12;101747.70;;;18.72;33.16
62237;BME280;69163;48.778;2.308;2024-02-21T00:23:36;101740.57;;;18.49;33.07
62237;BME280;69163;48.778;2.308;2024-02-21T00:26:02;101735.15;;;18.51;32.98
62237;BME280;69163;48.778;2.308;2024-02-21T00:28:27;101750.61;;;18.47;32.97
62237;BME280;69163;48.778;2.308;2024-02-21T00:30:52;101757.58;;;18.41;33.01
62237;BME280;69163;48.778;2.308;2024-02-21T00:33:18;101747.87;;;18.40;32.87
62237;BME280;69163;48.778;2.308;2024-02-21T00:35:43;101743.18;;;18.41;32.87
62237;BME280;69163;48.778;2.308;2024-02-21T00:38:08;101743.93;;;18.40;32.80
62237;BME280;69163;48.778;2.308;2024-02-21T00:40:34;101743.55;;;18.22;32.72
62237;BME280;69163;48.778;2.308;2024-02-21T00:42:58;101733.65;;;18.41;32.71
62237;BME280;69163;48.778;2.308;2024-02-21T00:45:24;101725.61;;;18.66;32.62
62237;BME280;69163;48.778;2.308;2024-02-21T00:47:49;101731.52;;;18.85;32.64
62237;BME280;69163;48.778;2.308;2024-02-21T00:50:15;101721.56;;;18.33;32.66
62237;BME280;69163;48.778;2.308;2024-02-21T00:52:40;101703.43;;;18.30;32.64
62237;BME280;69163;48.778;2.308;2024-02-21T00:55:06;101707.45;;;18.51;32.65
62237;BME280;69163;48.778;2.308;2024-02-21T00:57:30;101708.69;;;18.19;32.64
62237;BME280;69163;48.778;2.308;2024-02-21T00:59:56;101708.11;;;18.17;32.63
62237;BME280;69163;48.778;2.308;2024-02-21T01:02:20;101698.61;;;18.15;32.59
62237;BME280;69163;48.778;2.308;2024-02-21T01:04:46;101692.94;;;18.12;32.57
62237;BME280;69163;48.778;2.308;2024-02-21T01:07:12;101690.24;;;18.56;32.59
62237;BME280;69163;48.778;2.308;2024-02-21T01:09:36;101681.13;;;18.51;32.61
62237;BME280;69163;48.778;2.308;2024-02-21T01:12:02;101678.97;;;18.19;32.64
62237;BME280;69163;48.778;2.308;2024-02-21T01:14:27;101676.24;;;18.13;32.65
62237;BME280;69163;48.778;2.308;2024-02-21T01:16:52;101665.14;;;17.86;32.67
62237;BME280;69163;48.778;2.308;2024-02-21T01:19:17;101656.05;;;17.87;32.52
62237;BME280;69163;48.778;2.308;2024-02-21T01:21:43;101656.06;;;17.90;32.51
62237;BME280;69163;48.778;2.308;2024-02-21T01:24:08;101646.69;;;17.86;32.49
62237;BME280;69163;48.778;2.308;2024-02-21T01:26:33;101647.79;;;17.80;32.51
62237;BME280;69163;48.778;2.308;2024-02-21T01:28:58;101653.97;;;17.78;32.56
62237;BME280;69163;48.778;2.308;2024-02-21T01:31:24;101654.11;;;18.17;32.59
62237;BME280;69163;48.778;2.308;2024-02-21T01:33:49;101661.47;;;18.12;32.62
62237;BME280;69163;48.778;2.308;2024-02-21T01:36:15;101671.76;;;17.62;32.63
62237;BME280;69163;48.778;2.308;2024-02-21T01:38:39;101675.16;;;18.05;32.62
62237;BME280;69163;48.778;2.308;2024-02-21T01:41:05;101678.23;;;17.77;32.63
62237;BME280;69163;48.778;2.308;2024-02-21T01:43:30;101661.12;;;17.78;32.62
62237;BME280;69163;48.778;2.308;2024-02-21T01:45:56;101668.32;;;17.54;32.64
62237;BME280;69163;48.778;2.308;2024-02-21T01:48:22;101676.43;;;18.00;32.58
62237;BME280;69163;48.778;2.308;2024-02-21T01:50:46;101672.94;;;18.00;32.58
62237;BME280;69163;48.778;2.308;2024-02-21T01:53:12;101675.69;;;17.72;32.68
62237;BME280;69163;48.778;2.308;2024-02-21T01:55:36;101673.18;;;17.66;32.66
62237;BME280;69163;48.778;2.308;2024-02-21T01:58:02;101655.67;;;17.87;32.64
62237;BME280;69163;48.778;2.308;2024-02-21T02:00:28;101626.36;;;17.39;32.63
62237;BME280;69163;48.778;2.308;2024-02-21T02:02:51;101605.15;;;17.84;32.61
62237;BME280;69163;48.778;2.308;2024-02-21T02:05:18;101605.88;;;17.82;32.63
62237;BME280;69163;48.778;2.308;2024-02-21T02:07:42;101606.31;;;17.81;32.62
62237;BME280;69163;48.778;2.308;2024-02-21T02:10:09;101601.82;;;17.31;32.63
62237;BME280;69163;48.778;2.308;2024-02-21T02:12:33;101588.26;;;17.31;32.60
62237;BME280;69163;48.778;2.308;2024-02-21T02:14:59;101575.71;;;17.74;32.62
62237;BME280;69163;48.778;2.308;2024-02-21T02:17:23;101572.96;;;17.68;32.67
62237;BME280;69163;48.778;2.308;2024-02-21T02:19:49;101575.78;;;17.68;32.64
62237;BME280;69163;48.778;2.308;2024-02-21T02:22:28;101585.12;;;17.65;32.66
62237;BME280;69163;48.778;2.308;2024-02-21T02:24:39;101595.90;;;17.68;32.60
62237;BME280;69163;48.778;2.308;2024-02-21T02:27:05;101582.81;;;17.63;32.63
62237;BME280;69163;48.778;2.308;2024-02-21T02:29:32;101564.68;;;17.38;32.61
62237;BME280;69163;48.778;2.308;2024-02-21T02:31:54;101561.89;;;17.37;32.62
62237;BME280;69163;48.778;2.308;2024-02-21T02:34:20;101571.64;;;17.61;32.59
62237;BME280;69163;48.778;2.308;2024-02-21T02:36:46;101576.25;;;17.35;32.59
62237;BME280;69163;48.778;2.308;2024-02-21T02:39:11;101561.35;;;17.57;32.58
62237;BME280;69163;48.778;2.308;2024-02-21T02:41:36;101556.86;;;17.56;32.57
62237;BME280;69163;48.778;2.308;2024-02-21T02:44:02;101551.46;;;17.55;32.58
62237;BME280;69163;48.778;2.308;2024-02-21T02:46:27;101544.98;;;17.29;32.55
62237;BME280;69163;48.778;2.308;2024-02-21T02:48:52;101533.96;;;17.53;32.58
62237;BME280;69163;48.778;2.308;2024-02-21T02:51:17;101527.40;;;17.50;32.58
62237;BME280;69163;48.778;2.308;2024-02-21T02:53:42;101525.98;;;17.47;32.63
62237;BME280;69163;48.778;2.308;2024-02-21T02:58:33;101523.32;;;17.46;32.57
62237;BME280;69163;48.778;2.308;2024-02-21T03:00:58;101523.16;;;17.24;32.54
62237;BME280;69163;48.778;2.308;2024-02-21T03:03:23;101523.12;;;17.51;32.51
62237;BME280;69163;48.778;2.308;2024-02-21T03:05:49;101529.20;;;17.04;32.49
62237;BME280;69163;48.778;2.308;2024-02-21T03:08:14;101519.97;;;17.05;32.43
62237;BME280;69163;48.778;2.308;2024-02-21T03:10:39;101506.47;;;17.02;32.43
62237;BME280;69163;48.778;2.308;2024-02-21T03:13:05;101502.97;;;17.53;32.42
62237;BME280;69163;48.778;2.308;2024-02-21T03:15:30;101490.19;;;17.50;32.43
62237;BME280;69163;48.778;2.308;2024-02-21T03:17:55;101467.38;;;17.26;32.42
62237;BME280;69163;48.778;2.308;2024-02-21T03:20:20;101453.57;;;17.49;32.38
62237;BME280;69163;48.778;2.308;2024-02-21T03:22:45;101454.47;;;17.01;32.39
62237;BME280;69163;48.778;2.308;2024-02-21T03:25:12;101458.39;;;17.26;32.35
62237;BME280;69163;48.778;2.308;2024-02-21T03:27:36;101463.03;;;17.47;32.37
62237;BME280;69163;48.778;2.308;2024-02-21T03:30:01;101461.05;;;17.26;32.31
62237;BME280;69163;48.778;2.308;2024-02-21T03:32:27;101447.89;;;17.46;32.34
62237;BME280;69163;48.778;2.308;2024-02-21T03:34:52;101418.21;;;16.93;32.40
62237;BME280;69163;48.778;2.308;2024-02-21T03:37:18;101407.96;;;17.21;32.35
62237;BME280;69163;48.778;2.308;2024-02-21T03:39:42;101424.44;;;16.94;32.34
62237;BME280;69163;48.778;2.308;2024-02-21T03:42:09;101426.29;;;16.94;32.33
62237;BME280;69163;48.778;2.308;2024-02-21T03:44:33;101427.43;;;17.40;32.33
62237;BME280;69163;48.778;2.308;2024-02-21T03:46:59;101428.18;;;17.37;32.36
62237;BME280;69163;48.778;2.308;2024-02-21T03:49:23;101430.25;;;17.13;32.37
62237;BME280;69163;48.778;2.308;2024-02-21T03:51:49;101433.17;;;17.34;32.37
62237;BME280;69163;48.778;2.308;2024-02-21T03:54:14;101443.25;;;17.28;32.42
62237;BME280;69163;48.778;2.308;2024-02-21T03:56:39;101456.83;;;17.23;32.51
62237;BME280;69163;48.778;2.308;2024-02-21T03:59:04;101448.71;;;16.95;32.46
62237;BME280;69163;48.778;2.308;2024-02-21T04:01:30;101437.76;;;17.18;32.52
62237;BME280;69163;48.778;2.308;2024-02-21T04:03:55;101441.25;;;17.37;32.55
62237;BME280;69163;48.778;2.308;2024-02-21T04:06:20;101435.36;;;17.38;32.51
62237;BME280;69163;48.778;2.308;2024-02-21T04:08:46;101441.17;;;16.90;32.51
62237;BME280;69163;48.778;2.308;2024-02-21T04:11:12;101436.42;;;17.15;32.50
62237;BME280;69163;48.778;2.308;2024-02-21T04:13:36;101439.19;;;17.13;32.53
62237;BME280;69163;48.778;2.308;2024-02-21T04:16:01;101447.91;;;17.08;32.57
62237;BME280;69163;48.778;2.308;2024-02-21T04:18:27;101445.76;;;17.08;32.57
62237;BME280;69163;48.778;2.308;2024-02-21T04:20:52;101439.82;;;17.06;32.57
62237;BME280;69163;48.778;2.308;2024-02-21T04:23:17;101425.97;;;17.07;32.56
62237;BME280;69163;48.778;2.308;2024-02-21T04:25:43;101407.69;;;17.07;32.53
62237;BME280;69163;48.778;2.308;2024-02-21T04:28:08;101403.65;;;17.32;32.50
62237;BME280;69163;48.778;2.308;2024-02-21T04:30:33;101403.21;;;17.06;32.51
62237;BME280;69163;48.778;2.308;2024-02-21T04:32:58;101387.85;;;17.00;32.56
62237;BME280;69163;48.778;2.308;2024-02-21T04:35:23;101372.88;;;17.00;32.57
62237;BME280;69163;48.778;2.308;2024-02-21T04:37:50;101376.37;;;16.96;32.60
62237;BME280;69163;48.778;2.308;2024-02-21T04:40:14;101389.22;;;16.72;32.61
62237;BME280;69163;48.778;2.308;2024-02-21T04:42:39;101393.81;;;16.95;32.60
62237;BME280;69163;48.778;2.308;2024-02-21T04:45:05;101385.10;;;17.24;32.55
62237;BME280;69163;48.778;2.308;2024-02-21T04:47:30;101383.14;;;17.01;32.51
62237;BME280;69163;48.778;2.308;2024-02-21T04:49:55;101389.79;;;16.98;32.53
62237;BME280;69163;48.778;2.308;2024-02-21T04:52:20;101399.20;;;17.22;32.54
62237;BME280;69163;48.778;2.308;2024-02-21T04:54:46;101401.61;;;16.96;32.53
62237;BME280;69163;48.778;2.308;2024-02-21T04:57:12;101401.92;;;16.68;32.55
62237;BME280;69163;48.778;2.308;2024-02-21T04:59:36;101394.72;;;16.94;32.56
62237;BME280;69163;48.778;2.308;2024-02-21T05:02:03;101386.19;;;16.91;32.53
62237;BME280;69163;48.778;2.308;2024-02-21T05:04:26;101376.53;;;16.95;32.49
62237;BME280;69163;48.778;2.308;2024-02-21T05:06:52;101363.78;;;17.19;32.50
62237;BME280;69163;48.778;2.308;2024-02-21T05:09:17;101358.66;;;17.19;32.49
62237;BME280;69163;48.778;2.308;2024-02-21T05:11:42;101358.03;;;16.94;32.50
62237;BME280;69163;48.778;2.308;2024-02-21T05:14:08;101366.23;;;16.91;32.48
62237;BME280;69163;48.778;2.308;2024-02-21T05:16:33;101359.62;;;16.85;32.56
62237;BME280;69163;48.778;2.308;2024-02-21T05:18:58;101352.02;;;17.10;32.55
62237;BME280;69163;48.778;2.308;2024-02-21T05:21:23;101339.88;;;16.86;32.55
62237;BME280;69163;48.778;2.308;2024-02-21T05:23:49;101342.75;;;16.88;32.54
62237;BME280;69163;48.778;2.308;2024-02-21T05:26:20;101340.96;;;16.88;32.52
62237;BME280;69163;48.778;2.308;2024-02-21T05:28:39;101333.65;;;16.87;32.49
62237;BME280;69163;48.778;2.308;2024-02-21T05:31:05;101327.23;;;16.89;32.47
62237;BME280;69163;48.778;2.308;2024-02-21T05:33:29;101336.65;;;16.85;32.50
62237;BME280;69163;48.778;2.308;2024-02-21T05:36:00;101333.87;;;17.08;32.53
62237;BME280;69163;48.778;2.308;2024-02-21T05:38:20;101329.21;;;17.05;32.53
62237;BME280;69163;48.778;2.308;2024-02-21T05:40:45;101327.67;;;16.80;32.52
62237;BME280;69163;48.778;2.308;2024-02-21T05:43:11;101303.05;;;16.61;32.48
62237;BME280;69163;48.778;2.308;2024-02-21T05:45:36;101318.69;;;17.12;32.42
62237;BME280;69163;48.778;2.308;2024-02-21T05:48:01;101304.65;;;17.11;32.43
62237;BME280;69163;48.778;2.308;2024-02-21T05:50:27;101302.67;;;16.88;32.40
62237;BME280;69163;48.778;2.308;2024-02-21T05:52:52;101303.49;;;16.85;32.40
62237;BME280;69163;48.778;2.308;2024-02-21T05:55:17;101316.13;;;16.87;32.40
62237;BME280;69163;48.778;2.308;2024-02-21T05:57:42;101299.76;;;16.83;32.44
62237;BME280;69163;48.778;2.308;2024-02-21T06:00:08;101311.79;;;16.83;32.43
62237;BME280;69163;48.778;2.308;2024-02-21T06:02:32;101310.29;;;17.06;32.45
62237;BME280;69163;48.778;2.308;2024-02-21T06:04:58;101299.05;;;16.85;32.38
62237;BME280;69163;48.778;2.308;2024-02-21T06:07:23;101305.10;;;17.31;32.41
62237;BME280;69163;48.778;2.308;2024-02-21T06:09:49;101292.48;;;16.80;32.44
62237;BME280;69163;48.778;2.308;2024-02-21T06:12:14;101298.81;;;16.79;32.43
62237;BME280;69163;48.778;2.308;2024-02-21T06:14:39;101285.73;;;16.78;32.46
62237;BME280;69163;48.778;2.308;2024-02-21T06:17:04;101273.35;;;16.97;32.46
62237;BME280;69163;48.778;2.308;2024-02-21T06:19:29;101272.05;;;16.97;32.47
62237;BME280;69163;48.778;2.308;2024-02-21T06:21:55;101264.87;;;16.96;32.46
62237;BME280;69163;48.778;2.308;2024-02-21T06:24:20;101258.00;;;16.71;32.48
62237;BME280;69163;48.778;2.308;2024-02-21T06:26:45;101247.97;;;16.70;32.47
62237;BME280;69163;48.778;2.308;2024-02-21T06:29:12;101234.56;;;16.95;32.46
62237;BME280;69163;48.778;2.308;2024-02-21T06:31:35;101211.42;;;16.72;32.43
62237;BME280;69163;48.778;2.308;2024-02-21T06:34:02;101228.75;;;16.94;32.42
62237;BME280;69163;48.778;2.308;2024-02-21T06:36:27;101228.71;;;16.95;32.45
62237;BME280;69163;48.778;2.308;2024-02-21T06:38:52;101243.67;;;16.94;32.45
62237;BME280;69163;48.778;2.308;2024-02-21T06:41:18;101245.32;;;16.69;32.47
62237;BME280;69163;48.778;2.308;2024-02-21T06:43:43;101236.70;;;16.71;32.43
62237;BME280;69163;48.778;2.308;2024-02-21T06:46:22;101242.66;;;16.73;32.36
62237;BME280;69163;48.778;2.308;2024-02-21T06:48:34;101231.21;;;16.72;32.39
62237;BME280;69163;48.778;2.308;2024-02-21T06:50:59;101232.42;;;16.98;32.37
62237;BME280;69163;48.778;2.308;2024-02-21T06:53:24;101225.00;;;16.72;32.38
62237;BME280;69163;48.778;2.308;2024-02-21T06:55:49;101236.93;;;17.20;32.39
62237;BME280;69163;48.778;2.308;2024-02-21T06:58:14;101235.62;;;16.68;32.42
62237;BME280;69163;48.778;2.308;2024-02-21T07:00:41;101227.32;;;16.90;32.44
62237;BME280;69163;48.778;2.308;2024-02-21T07:03:05;101222.66;;;16.70;32.38
62237;BME280;69163;48.778;2.308;2024-02-21T07:05:30;101212.66;;;16.67;32.37
62237;BME280;69163;48.778;2.308;2024-02-21T07:07:56;101210.69;;;16.64;32.45
62237;BME280;69163;48.778;2.308;2024-02-21T07:10:21;101207.24;;;16.66;32.41
62237;BME280;69163;48.778;2.308;2024-02-21T07:12:46;101207.72;;;16.88;32.43
62237;BME280;69163;48.778;2.308;2024-02-21T07:15:12;101209.44;;;16.89;32.43
62237;BME280;69163;48.778;2.308;2024-02-21T07:17:37;101208.44;;;16.63;32.43
62237;BME280;69163;48.778;2.308;2024-02-21T07:20:01;101204.52;;;16.87;32.45
62237;BME280;69163;48.778;2.308;2024-02-21T07:22:27;101204.82;;;16.88;32.43
62237;BME280;69163;48.778;2.308;2024-02-21T07:24:52;101198.23;;;16.85;32.46
62237;BME280;69163;48.778;2.308;2024-02-21T07:27:19;101201.56;;;16.87;32.44
62237;BME280;69163;48.778;2.308;2024-02-21T07:29:43;101202.18;;;17.14;32.40
62237;BME280;69163;48.778;2.308;2024-02-21T07:32:08;101201.00;;;16.65;32.40
62237;BME280;69163;48.778;2.308;2024-02-21T07:34:34;101208.71;;;16.61;32.44
62237;BME280;69163;48.778;2.308;2024-02-21T07:36:59;101212.65;;;16.60;32.45
62237;BME280;69163;48.778;2.308;2024-02-21T07:39:23;101216.71;;;16.86;32.46
62237;BME280;69163;48.778;2.308;2024-02-21T07:41:49;101216.79;;;16.85;32.47
62237;BME280;69163;48.778;2.308;2024-02-21T07:44:14;101218.69;;;16.64;32.43
62237;BME280;69163;48.778;2.308;2024-02-21T07:46:40;101216.88;;;16.86;32.45
62237;BME280;69163;48.778;2.308;2024-02-21T07:49:05;101215.76;;;16.87;32.42
62237;BME280;69163;48.778;2.308;2024-02-21T07:51:31;101216.68;;;16.64;32.42
62237;BME280;69163;48.778;2.308;2024-02-21T07:53:55;101216.18;;;16.87;32.43
62237;BME280;69163;48.778;2.308;2024-02-21T07:56:20;101213.56;;;16.38;32.44
62237;BME280;69163;48.778;2.308;2024-02-21T07:58:45;101202.17;;;16.60;32.45
62237;BME280;69163;48.778;2.308;2024-02-21T08:01:11;101194.85;;;16.87;32.42
62237;BME280;69163;48.778;2.308;2024-02-21T08:03:37;101186.57;;;17.10;32.42
62237;BME280;69163;48.778;2.308;2024-02-21T08:06:03;101185.04;;;17.10;32.41
62237;BME280;69163;48.778;2.308;2024-02-21T08:08:27;101177.43;;;16.60;32.42
62237;BME280;69163;48.778;2.308;2024-02-21T08:10:53;101177.51;;;16.65;32.36
62237;BME280;69163;48.778;2.308;2024-02-21T08:13:17;101167.90;;;16.59;32.42
62237;BME280;69163;48.778;2.308;2024-02-21T08:15:43;101161.86;;;16.77;32.49
62237;BME280;69163;48.778;2.308;2024-02-21T08:18:08;101150.63;;;16.78;32.46
62237;BME280;69163;48.778;2.308;2024-02-21T08:20:33;101152.98;;;17.01;32.49
62237;BME280;69163;48.778;2.308;2024-02-21T08:22:58;101147.81;;;16.84;32.42
62237;BME280;69163;48.778;2.308;2024-02-21T08:25:24;101147.21;;;16.59;32.43
62237;BME280;69163;48.778;2.308;2024-02-21T08:27:50;101145.83;;;16.81;32.42
62237;BME280;69163;48.778;2.308;2024-02-21T08:30:15;101146.77;;;16.58;32.42
62237;BME280;69163;48.778;2.308;2024-02-21T08:32:39;101143.26;;;16.57;32.42
62237;BME280;69163;48.778;2.308;2024-02-21T08:35:05;101138.27;;;16.82;32.44
62237;BME280;69163;48.778;2.308;2024-02-21T08:37:30;101128.04;;;16.78;32.45
62237;BME280;69163;48.778;2.308;2024-02-21T08:39:55;101126.40;;;16.52;32.49
62237;BME280;69163;48.778;2.308;2024-02-21T08:42:20;101118.51;;;16.53;32.47
62237;BME280;69163;48.778;2.308;2024-02-21T08:44:45;101109.56;;;16.29;32.44
62237;BME280;69163;48.778;2.308;2024-02-21T08:47:10;101109.24;;;16.56;32.42
62237;BME280;69163;48.778;2.308;2024-02-21T08:49:37;101108.86;;;17.03;32.42
62237;BME280;69163;48.778;2.308;2024-02-21T08:52:02;101107.10;;;16.81;32.42
62237;BME280;69163;48.778;2.308;2024-02-21T08:54:27;101106.48;;;16.59;32.39
62237;BME280;69163;48.778;2.308;2024-02-21T08:56:52;101106.75;;;16.81;32.38
62237;BME280;69163;48.778;2.308;2024-02-21T08:59:18;101103.75;;;16.56;32.41
62237;BME280;69163;48.778;2.308;2024-02-21T09:01:43;101102.36;;;16.78;32.43
62237;BME280;69163;48.778;2.308;2024-02-21T09:04:09;101097.21;;;16.56;32.40
62237;BME280;69163;48.778;2.308;2024-02-21T09:06:33;101087.11;;;16.59;32.37
62237;BME280;69163;48.778;2.308;2024-02-21T09:08:58;101089.35;;;16.84;32.36
62237;BME280;69163;48.778;2.308;2024-02-21T09:11:24;101079.47;;;16.82;32.39
62237;BME280;69163;48.778;2.308;2024-02-21T09:13:49;101071.51;;;16.80;32.39
62237;BME280;69163;48.778;2.308;2024-02-21T09:16:14;101071.25;;;16.56;32.41
62237;BME280;69163;48.778;2.308;2024-02-21T09:18:40;101067.70;;;16.54;32.43
62237;BME280;69163;48.778;2.308;2024-02-21T09:21:05;101062.71;;;16.77;32.44
62237;BME280;69163;48.778;2.308;2024-02-21T09:23:30;101066.12;;;16.73;32.48
62237;BME280;69163;48.778;2.308;2024-02-21T09:25:55;101056.93;;;16.53;32.46
62237;BME280;69163;48.778;2.308;2024-02-21T09:28:20;101048.90;;;16.73;32.48
62237;BME280;69163;48.778;2.308;2024-02-21T09:30:45;101047.44;;;16.75;32.46
62237;BME280;69163;48.778;2.308;2024-02-21T09:33:11;101036.46;;;16.56;32.42
62237;BME280;69163;48.778;2.308;2024-02-21T09:35:36;101026.69;;;17.04;32.39
62237;BME280;69163;48.778;2.308;2024-02-21T09:38:03;101024.74;;;17.01;32.42
62237;BME280;69163;48.778;2.308;2024-02-21T09:40:28;101031.42;;;17.00;32.46
62237;BME280;69163;48.778;2.308;2024-02-21T09:42:59;101024.42;;;16.75;32.46
62237;BME280;69163;48.778;2.308;2024-02-21T09:45:21;101025.62;;;16.50;32.48
62237;BME280;69163;48.778;2.308;2024-02-21T09:47:52;101019.46;;;16.75;32.46
62237;BME280;69163;48.778;2.308;2024-02-21T09:50:07;101014.03;;;16.75;32.44
62237;BME280;69163;48.778;2.308;2024-02-21T09:52:35;101007.12;;;16.45;33.08
62237;BME280;69163;48.778;2.308;2024-02-21T09:54:59;101012.21;;;16.37;34.22
62237;BME280;69163;48.778;2.308;2024-02-21T09:57:23;101004.79;;;16.84;34.67
62237;BME280;69163;48.778;2.308;2024-02-21T09:59:49;101010.37;;;16.54;34.84
62237;BME280;69163;48.778;2.308;2024-02-21T10:02:14;101012.29;;;16.78;35.02
62237;BME280;69163;48.778;2.308;2024-02-21T10:04:40;101003.78;;;16.81;35.21
62237;BME280;69163;48.778;2.308;2024-02-21T10:07:04;101001.58;;;16.55;35.36
62237;BME280;69163;48.778;2.308;2024-02-21T10:09:29;100999.60;;;16.32;35.36
62237;BME280;69163;48.778;2.308;2024-02-21T10:11:55;100994.29;;;16.42;35.36
62237;BME280;69163;48.778;2.308;2024-02-21T10:14:20;100983.29;;;16.90;35.71
62237;BME280;69163;48.778;2.308;2024-02-21T10:16:46;100977.76;;;16.70;35.65
62237;BME280;69163;48.778;2.308;2024-02-21T10:19:16;100979.09;;;16.49;35.76
62237;BME280;69163;48.778;2.308;2024-02-21T10:21:36;100964.27;;;16.94;35.87
62237;BME280;69163;48.778;2.308;2024-02-21T10:24:01;100965.56;;;16.75;35.91
62237;BME280;69163;48.778;2.308;2024-02-21T10:26:26;100967.25;;;16.78;35.92
62237;BME280;69163;48.778;2.308;2024-02-21T10:28:52;100965.85;;;16.80;35.93
62237;BME280;69163;48.778;2.308;2024-02-21T10:31:24;100954.63;;;16.52;35.99
62237;BME280;69163;48.778;2.308;2024-02-21T10:33:43;100954.71;;;16.78;35.97
62237;BME280;69163;48.778;2.308;2024-02-21T10:36:09;100946.08;;;17.08;35.96
62237;BME280;69163;48.778;2.308;2024-02-21T10:38:33;100936.34;;;16.82;35.94
62237;BME280;69163;48.778;2.308;2024-02-21T10:40:58;100930.53;;;16.86;35.85
62237;BME280;69163;48.778;2.308;2024-02-21T10:43:24;100923.58;;;16.84;35.78
62237;BME280;69163;48.778;2.308;2024-02-21T10:45:51;100914.30;;;16.83;35.76
62237;BME280;69163;48.778;2.308;2024-02-21T10:48:15;100917.87;;;16.57;35.78
62237;BME280;69163;48.778;2.308;2024-02-21T10:50:51;100922.62;;;16.71;35.95
62237;BME280;69163;48.778;2.308;2024-02-21T10:53:19;100897.41;;;16.54;36.15
62237;BME280;69163;48.778;2.308;2024-02-21T10:55:37;100901.25;;;16.80;36.32
62237;BME280;69163;48.778;2.308;2024-02-21T10:57:56;100896.58;;;16.56;36.45
62237;BME280;69163;48.778;2.308;2024-02-21T11:00:20;100883.17;;;16.57;36.50
62237;BME280;69163;48.778;2.308;2024-02-21T11:02:46;100885.63;;;17.08;36.57
62237;BME280;69163;48.778;2.308;2024-02-21T11:05:12;100891.48;;;17.14;36.53
62237;BME280;69163;48.778;2.308;2024-02-21T11:07:37;100889.54;;;16.87;36.49
62237;BME280;69163;48.778;2.308;2024-02-21T11:12:27;100885.00;;;16.86;36.51
62237;BME280;69163;48.778;2.308;2024-02-21T11:14:52;100872.17;;;16.70;36.44
62237;BME280;69163;48.778;2.308;2024-02-21T11:17:19;100862.92;;;16.67;36.46
62237;BME280;69163;48.778;2.308;2024-02-21T11:19:42;100866.25;;;16.92;36.46
62237;BME280;69163;48.778;2.308;2024-02-21T11:22:16;100852.29;;;17.15;36.49
62237;BME280;69163;48.778;2.308;2024-02-21T11:24:34;100850.53;;;16.91;36.43
62237;BME280;69163;48.778;2.308;2024-02-21T11:27:08;100839.57;;;16.92;36.40
62237;BME280;69163;48.778;2.308;2024-02-21T11:29:24;100845.83;;;16.67;36.42
62237;BME280;69163;48.778;2.308;2024-02-21T11:31:49;100837.15;;;16.70;36.40
62237;BME280;69163;48.778;2.308;2024-02-21T11:34:17;100828.17;;;16.70;36.35
62237;BME280;69163;48.778;2.308;2024-02-21T11:36:47;100819.23;;;16.65;36.46
62237;BME280;69163;48.778;2.308;2024-02-21T11:39:04;100815.82;;;16.88;36.47
62237;BME280;69163;48.778;2.308;2024-02-21T11:41:30;100812.35;;;16.90;36.40
62237;BME280;69163;48.778;2.308;2024-02-21T11:43:55;100808.62;;;17.17;36.36
62237;BME280;69163;48.778;2.308;2024-02-21T11:46:20;100800.75;;;16.65;36.40
62237;BME280;69163;48.778;2.308;2024-02-21T11:48:45;100798.70;;;16.94;36.32
62237;BME280;69163;48.778;2.308;2024-02-21T11:51:11;100793.23;;;16.70;36.30
62237;BME280;69163;48.778;2.308;2024-02-21T11:53:38;100790.63;;;16.69;36.27
62237;BME280;69163;48.778;2.308;2024-02-21T11:56:01;100780.79;;;16.69;36.28
62237;BME280;69163;48.778;2.308;2024-02-21T11:58:26;100778.61;;;16.93;36.32
62237;BME280;69163;48.778;2.308;2024-02-21T12:00:52;100775.20;;;16.90;36.32
62237;BME280;69163;48.778;2.308;2024-02-21T12:03:17;100775.20;;;16.88;36.35
62237;BME280;69163;48.778;2.308;2024-02-21T12:05:43;100761.06;;;16.70;36.25
62237;BME280;69163;48.778;2.308;2024-02-21T12:08:07;100754.60;;;16.94;36.22
62237;BME280;69163;48.778;2.308;2024-02-21T12:10:33;100751.85;;;16.69;36.26
62237;BME280;69163;48.778;2.308;2024-02-21T12:13:06;100744.31;;;16.66;36.20
62237;BME280;69163;48.778;2.308;2024-02-21T12:15:23;100740.37;;;16.99;36.02
62237;BME280;69163;48.778;2.308;2024-02-21T12:17:49;100735.15;;;17.16;36.14
62237;BME280;69163;48.778;2.308;2024-02-21T12:20:15;100727.58;;;16.69;36.13
62237;BME280;69163;48.778;2.308;2024-02-21T12:22:39;100718.21;;;17.19;36.10
62237;BME280;69163;48.778;2.308;2024-02-21T12:25:15;100713.47;;;16.92;36.12
62237;BME280;69163;48.778;2.308;2024-02-21T12:27:29;100715.77;;;16.74;36.09
62237;BME280;69163;48.778;2.308;2024-02-21T12:29:55;100702.03;;;16.79;36.02
62237;BME280;69163;48.778;2.308;2024-02-21T12:32:20;100688.13;;;16.77;35.98
62237;BME280;69163;48.778;2.308;2024-02-21T12:34:45;100688.59;;;16.75;35.98
62237;BME280;69163;48.778;2.308;2024-02-21T12:37:11;100680.91;;;16.76;35.99
62237;BME280;69163;48.778;2.308;2024-02-21T12:39:35;100671.53;;;17.25;35.97
62237;BME280;69163;48.778;2.308;2024-02-21T12:42:01;100664.30;;;17.01;35.92
62237;BME280;69163;48.778;2.308;2024-02-21T12:44:26;100654.05;;;16.79;35.90